createdAt,value
2018-04-22T00:01:59.592Z,39.93
2018-04-22T00:04:29.568Z,43.17
2018-04-22T00:06:59.687Z,44.70
2018-04-22T00:09:29.188Z,45.27
2018-04-22T00:11:59.433Z,45.37
2018-04-22T00:14:29.239Z,43.20
2018-04-22T00:16:59.263Z,42.93
2018-04-22T00:19:29.282Z,43.00
2018-04-22T00:21:59.954Z,42.43
2018-04-22T00:24:29.806Z,45.60
2018-04-22T00:26:59.293Z,41.90
2018-04-22T00:29:28.820Z,43.23
2018-04-22T00:31:59.155Z,47.30
2018-04-22T00:34:29.226Z,44.20
2018-04-22T00:37:00.067Z,43.33
2018-04-22T00:39:33.032Z,43.53
2018-04-22T00:42:03.801Z,45.17
2018-04-22T00:44:33.616Z,42.40
2018-04-22T00:47:04.583Z,41.20
2018-04-22T00:49:34.454Z,41.90
2018-04-22T00:52:05.475Z,41.73
2018-04-22T00:54:35.475Z,41.20
2018-04-22T00:57:05.703Z,43.03
2018-04-22T00:59:35.570Z,41.13
2018-04-22T01:02:07.508Z,42.40
2018-04-22T01:04:37.204Z,41.10
2018-04-22T01:07:07.346Z,41.17
2018-04-22T01:09:37.082Z,40.27
2018-04-22T01:12:09.919Z,41.27
2018-04-22T01:14:39.392Z,41.50
2018-04-22T01:17:09.189Z,43.60
2018-04-22T01:19:39.403Z,43.00
2018-04-22T01:22:09.614Z,41.07
2018-04-22T01:24:40.515Z,40.40
2018-04-22T01:27:10.331Z,41.23
2018-04-22T01:29:41.859Z,41.40
2018-04-22T01:32:11.967Z,38.60
2018-04-22T01:34:41.718Z,42.70
2018-04-22T01:37:13.507Z,40.43
2018-04-22T01:39:43.283Z,41.20
2018-04-22T01:42:13.442Z,42.30
2018-04-22T01:44:44.375Z,42.00
2018-04-22T01:47:14.220Z,40.77
2018-04-22T01:49:44.077Z,43.00
2018-04-22T01:52:13.891Z,40.40
2018-04-22T01:54:45.023Z,41.70
2018-04-22T01:57:16.571Z,42.73
2018-04-22T01:59:47.193Z,42.63
2018-04-22T02:02:17.247Z,42.93
2018-04-22T02:04:49.742Z,43.03
2018-04-22T02:07:21.164Z,41.10
2018-04-22T02:09:50.852Z,40.63
2018-04-22T02:12:24.142Z,40.50
2018-04-22T02:14:53.817Z,41.40
2018-04-22T02:17:23.559Z,41.17
2018-04-22T02:19:53.854Z,41.80
2018-04-22T02:22:24.557Z,42.83
2018-04-22T02:24:53.970Z,41.00
2018-04-22T02:27:25.478Z,41.57
2018-04-22T02:29:55.381Z,41.70
2018-04-22T02:32:25.819Z,37.33
2018-04-22T02:34:56.311Z,38.53
2018-04-22T02:37:26.112Z,38.40
2018-04-22T02:39:56.331Z,37.53
2018-04-22T02:42:26.099Z,39.20
2018-04-22T02:45:00.290Z,39.47
2018-04-22T02:47:30.760Z,39.00
2018-04-22T02:50:00.552Z,39.47
2018-04-22T02:52:30.514Z,40.43
2018-04-22T02:55:00.276Z,38.60
2018-04-22T02:57:30.333Z,38.00
2018-04-22T02:59:59.876Z,39.00
2018-04-22T03:02:29.595Z,40.83
2018-04-22T03:05:00.212Z,42.30
2018-04-22T03:07:29.954Z,39.43
2018-04-22T03:10:00.050Z,39.43
2018-04-22T03:12:30.398Z,39.00
2018-04-22T03:14:59.934Z,37.73
2018-04-22T03:17:29.848Z,39.13
2018-04-22T03:19:59.569Z,38.93
2018-04-22T03:22:29.425Z,39.27
2018-04-22T03:24:59.186Z,41.43
2018-04-22T03:27:29.669Z,44.07
2018-04-22T03:29:59.461Z,41.13
2018-04-22T03:32:29.336Z,39.30
2018-04-22T03:34:59.232Z,38.93
2018-04-22T03:37:28.764Z,40.83
2018-04-22T03:39:58.511Z,40.20
2018-04-22T03:42:28.755Z,39.90
2018-04-22T03:45:00.053Z,39.03
2018-04-22T03:47:29.807Z,40.40
2018-04-22T03:50:00.846Z,40.70
2018-04-22T03:52:30.421Z,38.57
2018-04-22T03:55:00.426Z,40.27
2018-04-22T03:57:30.876Z,39.00
2018-04-22T04:00:01.939Z,39.50
2018-04-22T04:02:32.808Z,37.93
2018-04-22T04:05:02.510Z,39.27
2018-04-22T04:07:39.672Z,39.57
2018-04-22T04:10:12.668Z,39.20
2018-04-22T04:12:44.840Z,38.93
2018-04-22T04:15:15.327Z,38.30
2018-04-22T04:17:46.684Z,37.10
2018-04-22T04:25:43.249Z,38.23
2018-04-22T04:28:13.155Z,37.40
2018-04-22T04:30:43.377Z,39.33
2018-04-22T04:33:14.112Z,38.20
2018-04-22T04:35:43.987Z,39.17
2018-04-22T04:38:14.455Z,39.10
2018-04-22T04:40:44.844Z,38.17
2018-04-22T04:43:14.683Z,38.53
2018-04-22T04:45:45.497Z,36.60
2018-04-22T04:48:15.552Z,35.60
2018-04-22T04:50:45.792Z,37.13
2018-04-22T04:53:15.404Z,35.13
2018-04-22T04:55:45.550Z,37.60
2018-04-22T04:58:16.464Z,34.60
2018-04-22T05:00:45.894Z,34.00
2018-04-22T05:03:16.875Z,34.70
2018-04-22T05:05:48.767Z,34.00
2018-04-22T05:08:18.839Z,32.03
2018-04-22T05:10:48.636Z,31.70
2018-04-22T05:13:18.116Z,31.70
2018-04-22T05:15:48.611Z,30.03
2018-04-22T05:18:18.722Z,33.73
2018-04-22T05:20:50.338Z,29.73
2018-04-22T05:23:22.845Z,30.33
2018-04-22T05:25:52.507Z,31.10
2018-04-22T05:28:24.370Z,32.10
2018-04-22T05:30:54.586Z,29.60
2018-04-22T05:33:25.927Z,29.87
2018-04-22T05:35:55.759Z,29.07
2018-04-22T05:38:25.642Z,26.90
2018-04-22T05:40:55.154Z,29.83
2018-04-22T05:43:25.313Z,28.30
2018-04-22T05:45:55.360Z,28.63
2018-04-22T05:48:25.116Z,27.43
2018-04-22T05:50:54.762Z,27.33
2018-04-22T05:53:24.375Z,27.60
2018-04-22T05:55:53.997Z,28.83
2018-04-22T05:58:25.224Z,26.97
2018-04-22T06:00:55.559Z,28.57
2018-04-22T06:03:25.263Z,28.40
2018-04-22T06:05:54.711Z,27.30
2018-04-22T06:08:25.820Z,26.90
2018-04-22T06:10:56.108Z,26.30
2018-04-22T06:13:25.998Z,28.53
2018-04-22T06:15:56.767Z,28.63
2018-04-22T06:18:26.313Z,26.40
2018-04-22T06:20:56.300Z,27.47
2018-04-22T06:23:26.309Z,26.30
2018-04-22T06:25:56.652Z,26.10
2018-04-22T06:28:26.501Z,27.93
2018-04-22T06:30:56.417Z,28.10
2018-04-22T06:33:26.921Z,27.20
2018-04-22T06:35:57.778Z,27.33
2018-04-22T06:38:28.061Z,28.17
2018-04-22T06:40:57.566Z,29.43
2018-04-22T06:43:27.516Z,31.83
2018-04-22T06:45:57.936Z,32.73
2018-04-22T06:48:27.507Z,37.47
2018-04-22T06:50:57.631Z,37.37
2018-04-22T06:53:28.618Z,36.40
2018-04-22T06:55:59.539Z,42.83
2018-04-22T06:58:29.257Z,45.43
2018-04-22T07:00:58.780Z,52.70
2018-04-22T07:03:28.256Z,50.00
2018-04-22T07:05:58.097Z,61.83
2018-04-22T07:08:28.656Z,56.27
2018-04-22T07:10:58.206Z,53.20
2018-04-22T07:13:27.920Z,45.07
2018-04-22T07:15:57.320Z,42.30
2018-04-22T07:18:26.925Z,39.60
2018-04-22T07:20:57.190Z,38.90
2018-04-22T07:23:26.919Z,39.30
2018-04-22T07:25:56.637Z,36.40
2018-04-22T07:28:26.235Z,40.93
2018-04-22T07:30:56.226Z,41.93
2018-04-22T07:33:25.877Z,39.57
2018-04-22T07:35:56.021Z,40.53
2018-04-22T07:38:26.499Z,38.13
2018-04-22T07:40:56.737Z,37.83
2018-04-22T07:43:26.184Z,36.77
2018-04-22T07:45:56.181Z,38.90
2018-04-22T07:48:26.093Z,36.13
2018-04-22T07:50:56.317Z,35.10
2018-04-22T07:53:26.403Z,32.70
2018-04-22T07:55:55.935Z,33.10
2018-04-22T07:58:25.442Z,32.77
2018-04-22T08:00:56.039Z,31.97
2018-04-22T08:03:25.712Z,32.50
2018-04-22T08:05:56.550Z,32.47
2018-04-22T08:08:26.787Z,33.80
2018-04-22T08:10:59.095Z,32.90
2018-04-22T08:13:28.831Z,39.97
2018-04-22T08:15:58.969Z,46.30
2018-04-22T08:18:28.557Z,48.70
2018-04-22T08:21:00.077Z,49.10
2018-04-22T08:23:30.030Z,42.60
2018-04-22T08:26:00.930Z,42.00
2018-04-22T08:28:31.026Z,41.53
2018-04-22T08:31:01.035Z,39.43
2018-04-22T08:33:30.524Z,37.70
2018-04-22T08:36:00.071Z,37.60
2018-04-22T08:38:30.080Z,34.20
2018-04-22T08:40:59.569Z,32.43
2018-04-22T08:43:29.199Z,30.60
2018-04-22T08:45:59.903Z,28.77
2018-04-22T08:48:29.793Z,26.90
2018-04-22T08:50:59.388Z,28.47
2018-04-22T08:53:29.280Z,30.23
2018-04-22T08:55:58.858Z,28.97
2018-04-22T08:58:28.600Z,30.43
2018-04-22T09:00:59.674Z,28.47
2018-04-22T09:03:29.131Z,30.33
2018-04-22T09:05:59.470Z,28.77
2018-04-22T09:08:29.251Z,29.07
2018-04-22T09:10:58.879Z,27.03
2018-04-22T09:13:28.494Z,27.77
2018-04-22T09:15:58.778Z,26.77
2018-04-22T09:18:28.577Z,28.60
2018-04-22T09:20:58.251Z,25.73
2018-04-22T09:23:28.405Z,28.60
2018-04-22T09:25:59.101Z,28.00
2018-04-22T09:28:28.871Z,27.27
2018-04-22T09:31:00.189Z,27.27
2018-04-22T09:33:29.742Z,26.73
2018-04-22T09:36:00.905Z,25.53
2018-04-22T09:38:30.912Z,24.63
2018-04-22T09:41:00.445Z,26.77
2018-04-22T09:43:30.057Z,26.77
2018-04-22T09:46:00.031Z,25.17
2018-04-22T09:48:29.546Z,26.23
2018-04-22T09:50:59.007Z,27.37
2018-04-22T09:53:28.879Z,26.77
2018-04-22T09:55:58.811Z,27.20
2018-04-22T09:58:28.819Z,26.67
2018-04-22T10:01:01.205Z,25.33
2018-04-22T10:03:31.699Z,24.27
2018-04-22T10:06:02.495Z,25.40
2018-04-22T10:08:32.494Z,28.47
2018-04-22T10:11:02.041Z,26.63
2018-04-22T10:13:31.483Z,25.60
2018-04-22T10:16:01.361Z,25.00
2018-04-22T10:18:30.924Z,26.23
2018-04-22T10:21:00.434Z,25.27
2018-04-22T10:23:30.774Z,24.53
2018-04-22T10:26:00.516Z,25.33
2018-04-22T10:28:30.147Z,25.60
2018-04-22T10:31:00.260Z,25.60
2018-04-22T10:33:31.024Z,24.73
2018-04-22T10:36:01.005Z,25.43
2018-04-22T10:38:32.764Z,25.40
2018-04-22T10:41:03.673Z,22.93
2018-04-22T10:43:33.657Z,23.27
2018-04-22T10:46:04.066Z,25.47
2018-04-22T10:48:34.009Z,24.87
2018-04-22T10:51:04.616Z,24.80
2018-04-22T10:53:34.228Z,25.23
2018-04-22T10:56:03.884Z,24.53
2018-04-22T10:58:33.804Z,22.10
2018-04-22T11:01:03.468Z,23.70
2018-04-22T11:03:33.016Z,22.00
2018-04-22T11:06:03.242Z,22.30
2018-04-22T11:08:32.790Z,21.53
2018-04-22T11:11:02.551Z,19.07
2018-04-22T11:13:32.427Z,19.30
2018-04-22T11:16:02.294Z,19.20
2018-04-22T11:18:31.833Z,18.70
2018-04-22T11:21:04.477Z,14.97
2018-04-22T11:23:34.042Z,16.67
2018-04-22T11:26:03.688Z,16.37
2018-04-22T11:28:33.646Z,13.80
2018-04-22T11:31:03.765Z,13.50
2018-04-22T11:33:33.936Z,12.37
2018-04-22T11:36:04.850Z,14.90
2018-04-22T11:38:34.431Z,16.60
2018-04-22T11:41:04.087Z,15.10
2018-04-22T11:43:33.563Z,13.87
2018-04-22T11:46:03.352Z,13.20
2018-04-22T11:48:33.447Z,12.23
2018-04-22T11:51:08.911Z,12.57
2018-04-22T11:53:39.135Z,12.73
2018-04-22T11:56:11.135Z,12.00
2018-04-22T11:58:43.399Z,11.80
2018-04-22T12:01:13.289Z,13.50
2018-04-22T12:03:46.039Z,9.90
2018-04-22T12:06:16.321Z,11.87
2018-04-22T12:08:46.543Z,8.80
2018-04-22T12:11:16.870Z,10.70
2018-04-22T12:13:47.038Z,8.73
2018-04-22T12:16:17.622Z,8.47
2018-04-22T12:18:48.624Z,7.30
2018-04-22T12:21:18.433Z,7.70
2018-04-22T12:23:47.940Z,10.50
2018-04-22T12:26:17.842Z,9.53
2018-04-22T12:28:47.359Z,7.97
2018-04-22T12:31:17.483Z,8.77
2018-04-22T12:33:49.044Z,7.77
2018-04-22T12:36:18.675Z,7.93
2018-04-22T12:38:48.466Z,7.53
2018-04-22T12:41:18.806Z,7.07
2018-04-22T12:43:48.379Z,7.10
2018-04-22T12:46:19.038Z,7.50
2018-04-22T12:48:49.112Z,7.00
2018-04-22T12:51:21.767Z,6.97
2018-04-22T12:53:51.892Z,5.00
2018-04-22T12:56:24.193Z,6.40
2018-04-22T12:58:54.996Z,4.20
2018-04-22T13:01:25.754Z,4.93
2018-04-22T13:03:56.212Z,4.83
2018-04-22T13:06:28.333Z,4.30
2018-04-22T13:08:58.129Z,4.70
2018-04-22T13:11:27.865Z,4.50
2018-04-22T13:13:57.412Z,4.50
2018-04-22T13:16:27.661Z,3.67
2018-04-22T13:18:57.388Z,4.10
2018-04-22T13:21:27.586Z,3.53
2018-04-22T13:23:57.706Z,4.63
2018-04-22T13:26:27.803Z,4.47
2018-04-22T13:28:58.269Z,3.87
2018-04-22T13:31:30.060Z,4.20
2018-04-22T13:34:06.305Z,3.73
2018-04-22T13:36:39.929Z,3.90
2018-04-22T13:39:10.868Z,4.37
2018-04-22T13:41:54.084Z,3.70
2018-04-22T13:44:27.104Z,3.47
2018-04-22T13:46:57.278Z,3.60
2018-04-22T13:49:30.850Z,3.77
2018-04-22T13:52:00.454Z,3.80
2018-04-22T13:54:30.307Z,3.37
2018-04-22T13:57:00.461Z,4.10
2018-04-22T13:59:29.966Z,3.97
2018-04-22T14:02:00.382Z,4.50
2018-04-22T14:04:32.556Z,4.10
2018-04-22T14:07:03.853Z,4.10
2018-04-22T14:09:33.975Z,3.77
2018-04-22T14:12:04.595Z,4.70
2018-04-22T14:14:34.129Z,3.83
2018-04-22T14:17:03.749Z,3.83
2018-04-22T14:19:33.594Z,3.80
2018-04-22T14:22:03.759Z,3.97
2018-04-22T14:24:33.646Z,3.90
2018-04-22T14:27:03.795Z,3.73
2018-04-22T14:29:34.211Z,3.87
2018-04-22T14:32:04.099Z,3.70
2018-04-22T14:34:34.125Z,3.67
2018-04-22T14:37:04.434Z,3.70
2018-04-22T14:39:35.143Z,3.40
2018-04-22T14:42:05.010Z,3.77
2018-04-22T14:44:45.911Z,3.60
2018-04-22T14:47:15.809Z,3.80
2018-04-22T14:49:45.180Z,4.10
2018-04-22T14:52:14.925Z,3.73
2018-04-22T14:54:45.325Z,3.33
2018-04-22T14:57:16.138Z,3.70
2018-04-22T14:59:46.148Z,3.63
2018-04-22T15:02:16.214Z,3.90
2018-04-22T15:04:45.654Z,4.17
2018-04-22T15:07:15.500Z,3.33
2018-04-22T15:09:47.533Z,4.00
2018-04-22T15:12:18.509Z,3.30
2018-04-22T15:14:48.776Z,3.90
2018-04-22T15:17:18.278Z,4.00
2018-04-22T15:19:48.172Z,4.30
2018-04-22T15:22:17.952Z,3.80
2018-04-22T15:24:47.434Z,4.10
2018-04-22T15:27:18.190Z,3.60
2018-04-22T15:29:48.657Z,3.37
2018-04-22T15:32:23.513Z,4.53
2018-04-22T15:34:54.507Z,4.27
2018-04-22T15:37:26.150Z,3.80
2018-04-22T15:39:56.087Z,3.83
2018-04-22T15:42:26.406Z,4.20
2018-04-22T15:44:56.909Z,4.00
2018-04-22T15:47:26.832Z,3.63
2018-04-22T15:49:57.685Z,3.60
2018-04-22T15:52:27.525Z,3.53
2018-04-22T15:54:57.055Z,4.30
2018-04-22T15:57:26.791Z,4.10
2018-04-22T15:59:57.054Z,4.50
2018-04-22T16:02:26.574Z,4.20
2018-04-22T16:04:57.393Z,4.20
2018-04-22T16:07:27.041Z,4.00
2018-04-22T16:09:56.729Z,4.10
2018-04-22T16:12:27.170Z,3.87
2018-04-22T16:14:56.621Z,3.63
2018-04-22T16:17:26.668Z,3.93
2018-04-22T16:19:59.453Z,4.50
2018-04-22T16:22:29.362Z,4.27
2018-04-22T16:25:02.288Z,4.20
2018-04-22T16:27:33.312Z,4.53
2018-04-22T16:30:03.376Z,4.33
2018-04-22T16:32:34.288Z,4.37
2018-04-22T16:35:05.044Z,4.63
2018-04-22T16:37:36.000Z,4.10
2018-04-22T16:40:06.124Z,4.50
2018-04-22T16:42:39.144Z,4.10
2018-04-22T16:45:17.417Z,4.60
2018-04-22T16:47:47.481Z,5.20
2018-04-22T16:50:17.506Z,5.20
2018-04-22T16:52:51.555Z,4.63
2018-04-22T16:55:24.575Z,3.63
2018-04-22T16:57:56.385Z,4.60
2018-04-22T17:00:26.396Z,4.20
2018-04-22T17:02:58.485Z,4.30
2018-04-22T17:05:29.017Z,4.60
2018-04-22T17:08:00.778Z,4.20
2018-04-22T17:10:30.652Z,4.20
2018-04-22T17:13:03.521Z,5.00
2018-04-22T17:15:33.385Z,4.43
2018-04-22T17:18:04.386Z,4.43
2018-04-22T17:20:34.457Z,3.90
2018-04-22T17:23:04.336Z,4.03
2018-04-22T17:25:34.049Z,4.67
2018-04-22T17:28:06.060Z,4.50
2018-04-22T17:30:36.343Z,4.67
2018-04-22T17:33:06.201Z,4.70
2018-04-22T17:35:37.430Z,4.07
2018-04-22T17:38:08.427Z,4.23
2018-04-22T17:40:49.071Z,4.50
2018-04-22T17:43:19.276Z,4.70
2018-04-22T17:45:52.755Z,5.27
2018-04-22T17:48:25.320Z,4.90
2018-04-22T17:50:54.912Z,5.43
2018-04-22T17:53:26.306Z,6.20
2018-04-22T17:55:56.001Z,5.70
2018-04-22T17:58:26.803Z,5.07
2018-04-22T18:00:57.218Z,5.33
2018-04-22T18:03:27.367Z,4.70
2018-04-22T18:05:57.280Z,4.70
2018-04-22T18:08:28.594Z,4.77
2018-04-22T18:10:59.154Z,5.20
2018-04-22T18:13:29.641Z,5.00
2018-04-22T18:16:00.706Z,4.50
2018-04-22T18:18:30.582Z,4.67
2018-04-22T18:21:00.164Z,4.53
2018-04-22T18:23:30.037Z,4.90
2018-04-22T18:25:59.728Z,4.60
2018-04-22T18:28:29.660Z,5.13
2018-04-22T18:31:00.536Z,4.63
2018-04-22T18:33:30.749Z,5.30
2018-04-22T18:36:02.306Z,4.87
2018-04-22T18:38:32.336Z,4.97
2018-04-22T18:41:02.101Z,4.90
2018-04-22T18:43:31.979Z,5.27
2018-04-22T18:46:03.320Z,5.70
2018-04-22T18:48:34.507Z,5.70
2018-04-22T18:51:06.341Z,5.20
2018-04-22T18:53:36.023Z,5.03
2018-04-22T18:56:06.472Z,5.20
2018-04-22T18:58:36.150Z,5.60
2018-04-22T19:01:05.996Z,4.90
2018-04-22T19:03:36.367Z,6.10
2018-04-22T19:06:06.202Z,4.97
2018-04-22T19:08:36.306Z,4.93
2018-04-22T19:11:07.186Z,5.40
2018-04-22T19:13:37.209Z,5.87
2018-04-22T19:16:07.263Z,6.33
2018-04-22T19:18:37.339Z,6.17
2018-04-22T19:21:08.838Z,4.87
2018-04-22T19:23:39.941Z,5.90
2018-04-22T19:26:09.573Z,4.97
2018-04-22T19:28:39.396Z,5.70
2018-04-22T19:31:09.190Z,6.77
2018-04-22T19:33:38.939Z,6.30
2018-04-22T19:36:08.703Z,5.73
2018-04-22T19:38:38.759Z,5.60
2018-04-22T19:41:09.356Z,6.13
2018-04-22T19:43:39.927Z,5.17
2018-04-22T19:46:10.762Z,5.80
2018-04-22T19:48:40.308Z,5.50
2018-04-22T19:51:09.965Z,5.57
2018-04-22T19:53:39.864Z,5.93
2018-04-22T19:56:09.527Z,6.10
2018-04-22T19:58:39.623Z,5.37
2018-04-22T20:01:09.332Z,4.70
2018-04-22T20:03:39.037Z,3.60
2018-04-22T20:06:08.735Z,4.23
2018-04-22T20:08:39.036Z,4.17
2018-04-22T20:11:09.396Z,4.20
2018-04-22T20:13:39.039Z,4.17
2018-04-22T20:16:08.748Z,4.10
2018-04-22T20:18:38.304Z,4.53
2018-04-22T20:21:07.951Z,3.60
2018-04-22T20:23:37.486Z,3.97
2018-04-22T20:26:07.151Z,3.33
2018-04-22T20:28:36.883Z,3.77
2018-04-22T20:31:06.906Z,3.60
2018-04-22T20:33:36.885Z,3.53
2018-04-22T20:36:06.517Z,4.30
2018-04-22T20:38:36.015Z,4.40
2018-04-22T20:41:05.660Z,3.20
2018-04-22T20:43:35.401Z,3.97
2018-04-22T20:46:05.511Z,3.97
2018-04-22T20:48:35.339Z,3.33
2018-04-22T20:51:04.994Z,3.90
2018-04-22T20:53:34.667Z,4.07
2018-04-22T20:56:04.992Z,3.77
2018-04-22T20:58:34.717Z,3.70
2018-04-22T21:01:06.163Z,4.10
2018-04-22T21:03:37.032Z,3.80
2018-04-22T21:06:06.813Z,3.97
2018-04-22T21:08:36.359Z,3.93
2018-04-22T21:11:05.953Z,4.00
2018-04-22T21:13:35.732Z,3.67
2018-04-22T21:16:05.625Z,4.77
2018-04-22T21:18:36.088Z,4.00
2018-04-22T21:21:06.169Z,3.57
2018-04-22T21:23:35.698Z,4.40
2018-04-22T21:26:05.820Z,4.20
2018-04-22T21:28:35.348Z,3.70
2018-04-22T21:31:04.915Z,4.07
2018-04-22T21:33:34.745Z,4.23
2018-04-22T21:36:05.680Z,3.60
2018-04-22T21:38:42.165Z,4.37
2018-04-22T21:41:13.854Z,3.93
2018-04-22T21:43:43.334Z,3.90
2018-04-22T21:46:13.209Z,4.17
2018-04-22T21:48:43.964Z,3.77
2018-04-22T21:51:14.470Z,4.03
2018-04-22T21:53:44.431Z,4.60
2018-04-22T21:56:14.360Z,5.13
2018-04-22T21:58:43.918Z,5.83
2018-04-22T22:01:13.815Z,4.40
2018-04-22T22:03:43.822Z,4.03
2018-04-22T22:06:16.357Z,4.23
2018-04-22T22:08:49.240Z,4.20
2018-04-22T22:11:19.074Z,3.93
2018-04-22T22:13:49.551Z,4.67
2018-04-22T22:16:19.309Z,4.07
2018-04-22T22:18:48.861Z,4.17
2018-04-22T22:21:18.310Z,3.90
2018-04-22T22:23:48.271Z,4.17
2018-04-22T22:26:18.413Z,4.00
2018-04-22T22:28:48.813Z,4.57
2018-04-22T22:31:18.224Z,4.13
2018-04-22T22:33:48.180Z,4.40
2018-04-22T22:36:17.641Z,4.30
2018-04-22T22:38:47.443Z,4.13
2018-04-22T22:41:17.796Z,4.47
2018-04-22T22:43:47.991Z,4.40
2018-04-22T22:46:18.014Z,4.77
2018-04-22T22:48:49.106Z,4.00
2018-04-22T22:51:23.185Z,3.87
2018-04-22T22:53:53.263Z,4.20
2018-04-22T22:56:25.446Z,4.23
2018-04-22T22:58:55.582Z,4.77
2018-04-22T23:01:26.510Z,4.23
2018-04-22T23:03:56.111Z,4.20
2018-04-22T23:06:26.186Z,4.50
2018-04-22T23:08:55.826Z,4.80
2018-04-22T23:11:26.629Z,4.50
2018-04-22T23:13:56.708Z,4.67
2018-04-22T23:16:26.128Z,4.93
2018-04-22T23:18:56.804Z,4.60
2018-04-22T23:21:26.658Z,4.70
2018-04-22T23:23:57.004Z,5.10
2018-04-22T23:26:26.855Z,4.30
2018-04-22T23:28:56.853Z,4.57
2018-04-22T23:31:26.773Z,4.60
2018-04-22T23:33:56.474Z,4.73
2018-04-22T23:36:26.335Z,4.37
2018-04-22T23:38:56.217Z,5.57
2018-04-22T23:41:26.184Z,4.33
2018-04-22T23:43:55.636Z,4.70
2018-04-22T23:46:25.866Z,4.60
2018-04-22T23:48:55.771Z,4.70
2018-04-22T23:51:26.317Z,4.93
2018-04-22T23:53:56.146Z,4.90
2018-04-22T23:56:26.789Z,4.77
2018-04-22T23:58:56.589Z,5.30
